Time;durP1;ratioP1;P1;durP2;ratioP2;P2;SDS_P1;SDS_P2;PMS_P1;PMS_P2;Temp;Humidity;BMP_temperature;BMP_pressure;BME280_temperature;BME280_humidity;BME280_pressure;Samples;Min_cycle;Max_cycle;Signal;HPM_P1;HPM_P2
2022/10/12 00:00:28;;;;;;;14.20;3.27;;;;;;;18.02;nan;101534.41;6171816;23;20457;-92
2022/10/12 00:03:01;;;;;;;20.77;3.33;;;;;;;18.03;nan;101547.16;6171242;23;20447;-91
2022/10/12 00:05:44;;;;;;;10.07;2.73;;;;;;;18.00;nan;101558.66;6221909;23;20391;-93
2022/10/12 00:08:14;;;;;;;15.33;3.77;;;;;;;18.00;nan;101555.91;6246081;23;20463;-92
2022/10/12 00:10:42;;;;;;;9.57;2.93;;;;;;;17.94;nan;101549.34;6154468;23;20540;-92
2022/10/12 00:13:16;;;;;;;8.87;3.13;;;;;;;17.98;nan;101552.50;6083326;23;20414;-92
2022/10/12 00:15:50;;;;;;;11.50;3.80;;;;;;;17.98;nan;101554.41;6083069;23;20446;-92
2022/10/12 00:18:18;;;;;;;24.30;3.50;;;;;;;17.96;nan;101557.41;6105545;23;20927;-92
2022/10/12 00:21:09;;;;;;;12.00;3.70;;;;;;;18.00;nan;101557.81;6106215;23;20417;-93
2022/10/12 00:23:43;;;;;;;13.63;2.90;;;;;;;17.97;nan;101544.44;6106253;23;20445;-93
2022/10/12 00:26:14;;;;;;;12.53;3.10;;;;;;;17.97;nan;101539.75;6083312;23;20405;-92
2022/10/12 00:28:48;;;;;;;23.03;3.50;;;;;;;17.93;nan;101531.03;6170679;23;20561;-92
2022/10/12 00:31:21;;;;;;;11.00;3.07;;;;;;;18.00;nan;101541.22;6171972;23;20945;-92
2022/10/12 00:33:52;;;;;;;14.13;3.60;;;;;;;17.92;nan;101545.09;6171587;23;20763;-92
2022/10/12 00:36:25;;;;;;;14.53;3.10;;;;;;;17.85;nan;101539.63;6196287;23;20458;-93
2022/10/12 00:38:55;;;;;;;17.13;3.80;;;;;;;17.80;nan;101538.59;6196431;23;20861;-92
2022/10/12 00:41:27;;;;;;;16.77;3.80;;;;;;;17.73;nan;101535.84;6171667;23;20414;-93
2022/10/12 00:44:24;;;;;;;16.07;4.13;;;;;;;17.74;nan;101540.31;6196468;23;20514;-92
2022/10/12 00:47:08;;;;;;;10.50;3.10;;;;;;;17.75;nan;101535.63;6220605;23;20928;-92
2022/10/12 00:49:48;;;;;;;14.80;3.70;;;;;;;17.76;nan;101532.63;6220730;23;20470;-92
2022/10/12 00:53:03;;;;;;;12.47;4.00;;;;;;;17.78;nan;101535.19;6246813;23;20415;-92
2022/10/12 00:55:36;;;;;;;12.53;3.70;;;;;;;17.79;nan;101517.53;6143270;23;20415;-93
2022/10/12 00:58:04;;;;;;;16.70;3.57;;;;;;;17.78;nan;101522.22;6196144;23;20715;-93
2022/10/12 01:00:35;;;;;;;18.10;3.80;;;;;;;17.73;nan;101516.50;6171767;23;20402;-91
2022/10/12 01:03:02;;;;;;;15.23;3.50;;;;;;;17.80;nan;101522.84;6195713;23;20427;-90
2022/10/12 01:05:35;;;;;;;13.90;3.73;;;;;;;17.79;nan;101520.28;6161393;23;20419;-90
2022/10/12 01:08:03;;;;;;;13.90;3.70;;;;;;;17.79;nan;101520.28;6170806;23;20406;-91
2022/10/12 01:10:49;;;;;;;10.63;4.03;;;;;;;17.81;nan;101521.78;6197424;23;20390;-91
2022/10/12 01:13:19;;;;;;;12.27;4.10;;;;;;;17.77;nan;101520.50;6196061;23;20969;-90
2022/10/12 01:16:09;;;;;;;9.97;3.47;;;;;;;17.79;nan;101534.97;6171537;23;20406;-90
2022/10/12 01:18:54;;;;;;;13.20;4.10;;;;;;;17.77;nan;101531.56;6190694;23;20563;-90
2022/10/12 01:21:23;;;;;;;23.33;4.23;;;;;;;17.80;nan;101536.66;6193851;23;20458;-91
2022/10/12 01:24:34;;;;;;;24.47;3.97;;;;;;;17.83;nan;101529.84;6171233;23;21024;-91
2022/10/12 01:27:08;;;;;;;13.93;4.17;;;;;;;17.84;nan;101524.09;6246454;23;20798;-90
2022/10/12 01:29:52;;;;;;;16.37;3.90;;;;;;;17.82;nan;101517.94;6195725;23;20474;-90
2022/10/12 01:32:32;;;;;;;21.90;4.40;;;;;;;17.87;nan;101523.66;6174653;23;20445;-91
2022/10/12 01:35:38;;;;;;;36.33;4.43;;;;;;;17.89;nan;101526.19;6195791;23;20955;-90
2022/10/12 01:38:35;;;;;;;12.33;4.67;;;;;;;17.88;nan;101528.13;6220563;23;20474;-90
2022/10/12 01:41:49;;;;;;;13.07;4.00;;;;;;;17.85;nan;101536.84;6247190;23;20390;-91
2022/10/12 01:44:20;;;;;;;23.53;5.73;;;;;;;17.84;nan;101532.38;6100435;23;20853;-90
2022/10/12 01:46:48;;;;;;;15.17;4.87;;;;;;;17.88;nan;101530.03;6052712;23;20414;-90
2022/10/12 01:49:18;;;;;;;22.03;4.40;;;;;;;17.90;nan;101531.47;6052527;23;20518;-90
2022/10/12 01:52:24;;;;;;;20.90;5.50;;;;;;;17.93;nan;101514.44;6077469;23;20489;-91
2022/10/12 01:55:32;;;;;;;20.00;5.40;;;;;;;17.96;nan;101507.63;6223755;23;20406;-90
2022/10/12 01:58:47;;;;;;;17.23;4.60;;;;;;;17.95;nan;101519.75;6224152;23;20421;-90
2022/10/12 02:01:35;;;;;;;20.63;5.20;;;;;;;17.91;nan;101521.25;6124813;23;20859;-90
2022/10/12 02:04:21;;;;;;;24.13;4.90;;;;;;;17.81;nan;101516.25;6110117;23;21032;-91
2022/10/12 02:06:57;;;;;;;27.17;6.00;;;;;;;17.78;nan;101516.69;6078794;23;20424;-90
2022/10/12 02:09:27;;;;;;;22.17;5.33;;;;;;;17.78;nan;101516.69;6077697;23;20489;-89
2022/10/12 02:11:57;;;;;;;14.10;5.00;;;;;;;17.78;nan;101510.31;6076718;23;20497;-91
2022/10/12 02:14:26;;;;;;;26.37;4.63;;;;;;;17.76;nan;101507.75;6077252;23;20435;-90
2022/10/12 02:16:56;;;;;;;27.23;5.90;;;;;;;17.76;nan;101507.75;6076935;23;20453;-90
2022/10/12 02:19:39;;;;;;;18.40;5.37;;;;;;;17.71;nan;101503.94;6052453;23;20494;-91
2022/10/12 02:22:09;;;;;;;23.63;5.63;;;;;;;17.71;nan;101515.00;6074165;23;20494;-90
2022/10/12 02:24:46;;;;;;;21.93;5.90;;;;;;;17.69;nan;101511.66;6048887;23;20450;-90
2022/10/12 02:27:14;;;;;;;23.63;6.20;;;;;;;17.63;nan;101506.97;6098750;23;20981;-91
2022/10/12 02:29:48;;;;;;;35.47;5.80;;;;;;;17.57;nan;101503.16;6073480;23;20883;-90
2022/10/12 02:32:21;;;;;;;21.40;6.00;;;;;;;17.58;nan;101507.63;6075716;23;20477;-90
2022/10/12 02:35:12;;;;;;;18.43;5.23;;;;;;;17.54;nan;101506.38;6129719;23;21140;-90
2022/10/12 02:37:48;;;;;;;24.70;5.60;;;;;;;17.49;nan;101495.16;6197147;23;20414;-90
2022/10/12 02:40:54;;;;;;;19.47;5.47;;;;;;;17.41;nan;101492.63;6197193;23;20398;-91
2022/10/12 02:43:33;;;;;;;17.90;5.03;;;;;;;17.39;nan;101503.91;6226021;23;20689;-90
2022/10/12 02:46:13;;;;;;;18.97;3.80;;;;;;;17.35;nan;101505.41;6173628;23;20406;-90
2022/10/12 02:48:54;;;;;;;16.67;4.47;;;;;;;17.35;nan;101504.56;6173319;23;20395;-90
2022/10/12 02:51:23;;;;;;;11.17;4.43;;;;;;;17.31;nan;101500.56;6222077;23;20465;-90
2022/10/12 02:53:51;;;;;;;15.53;4.00;;;;;;;17.29;nan;101499.94;6221440;23;20433;-90
2022/10/12 02:56:18;;;;;;;11.87;4.47;;;;;;;17.25;nan;101489.31;6197120;23;20945;-90
2022/10/12 02:58:48;;;;;;;12.43;4.40;;;;;;;17.19;nan;101483.81;6197874;23;20466;-90
2022/10/12 03:01:15;;;;;;;14.00;4.53;;;;;;;17.25;nan;101492.06;6172775;23;20453;-91
2022/10/12 03:03:46;;;;;;;15.30;4.70;;;;;;;17.25;nan;101489.31;6196644;23;20442;-90
2022/10/12 03:06:19;;;;;;;20.67;5.30;;;;;;;17.21;nan;101479.75;6221671;23;20478;-91
2022/10/12 03:08:55;;;;;;;15.33;4.90;;;;;;;17.20;nan;101482.72;6247597;23;20782;-90
2022/10/12 03:11:24;;;;;;;28.27;5.80;;;;;;;17.19;nan;101484.66;6197009;23;20399;-90
2022/10/12 03:13:55;;;;;;;15.57;4.73;;;;;;;17.17;nan;101481.25;6172974;23;20525;-90
2022/10/12 03:16:27;;;;;;;12.43;4.10;;;;;;;17.16;nan;101489.75;6172582;23;20457;-90
2022/10/12 03:18:57;;;;;;;17.07;4.50;;;;;;;17.13;nan;101485.50;6245834;23;20439;-90
2022/10/12 03:21:31;;;;;;;21.23;4.47;;;;;;;17.12;nan;101481.09;6221669;23;20474;-91
2022/10/12 03:24:05;;;;;;;15.67;4.13;;;;;;;17.10;nan;101483.22;6171593;23;20450;-90
2022/10/12 03:26:33;;;;;;;14.30;4.30;;;;;;;17.14;nan;101487.22;6196318;23;20465;-90
2022/10/12 03:29:08;;;;;;;17.83;4.40;;;;;;;17.10;nan;101474.94;6196214;23;20953;-91
2022/10/12 03:31:37;;;;;;;14.40;4.37;;;;;;;17.10;nan;101491.50;6197225;23;20768;-90
2022/10/12 03:34:08;;;;;;;10.70;4.20;;;;;;;17.03;nan;101468.56;6196200;23;20426;-90
2022/10/12 03:36:46;;;;;;;14.10;4.13;;;;;;;17.09;nan;101484.28;6221200;23;20498;-90
2022/10/12 03:39:20;;;;;;;13.70;4.30;;;;;;;17.07;nan;101491.09;6246800;23;20924;-92
2022/10/12 03:41:47;;;;;;;19.23;4.60;;;;;;;17.06;nan;101500.44;6172563;23;20494;-92
2022/10/12 03:44:16;;;;;;;10.97;4.30;;;;;;;17.04;nan;101499.81;6221260;23;20549;-91
2022/10/12 03:46:52;;;;;;;11.53;4.03;;;;;;;17.02;nan;101494.50;6196123;23;20445;-91
2022/10/12 03:49:20;;;;;;;19.27;4.50;;;;;;;16.96;nan;101489.84;6246245;23;20526;-91
2022/10/12 03:51:48;;;;;;;23.13;5.43;;;;;;;16.97;nan;101496.19;6172523;23;20391;-91
2022/10/12 03:54:15;;;;;;;20.17;5.00;;;;;;;16.93;nan;101493.06;6171617;23;20414;-92
2022/10/12 03:56:52;;;;;;;18.77;4.53;;;;;;;16.90;nan;101479.69;6172783;23;20474;-92
2022/10/12 03:59:26;;;;;;;16.80;5.13;;;;;;;16.89;nan;101486.25;6220617;23;20411;-91
2022/10/12 04:01:54;;;;;;;16.20;5.00;;;;;;;16.84;nan;101477.78;6221536;23;20473;-90
2022/10/12 04:04:24;;;;;;;15.40;5.13;;;;;;;16.87;nan;101472.69;6196377;23;20651;-90
2022/10/12 04:06:51;;;;;;;15.87;5.27;;;;;;;16.84;nan;101472.25;6195953;23;20418;-91
2022/10/12 04:09:22;;;;;;;9.70;4.33;;;;;;;16.95;nan;101481.75;6195834;23;20399;-91
2022/10/12 04:11:49;;;;;;;21.50;5.57;;;;;;;16.95;nan;101474.31;6245628;23;20461;-91
2022/10/12 04:14:17;;;;;;;19.13;5.03;;;;;;;17.01;nan;101479.00;6220960;23;20505;-90
2022/10/12 04:16:53;;;;;;;9.00;4.20;;;;;;;17.01;nan;101476.22;6221066;23;20458;-91
2022/10/12 04:19:23;;;;;;;16.73;4.50;;;;;;;17.06;nan;101473.66;6220047;23;20756;-91
2022/10/12 04:21:53;;;;;;;18.80;5.50;;;;;;;17.12;nan;101467.28;6196422;23;20398;-92
2022/10/12 04:24:22;;;;;;;16.90;5.17;;;;;;;17.19;nan;101487.41;6171816;23;20434;-90
2022/10/12 04:26:51;;;;;;;25.33;5.80;;;;;;;17.22;nan;101473.16;6221590;23;20513;-91
2022/10/12 04:29:18;;;;;;;24.33;5.50;;;;;;;17.33;nan;101471.59;6220866;23;20467;-91
2022/10/12 04:31:56;;;;;;;17.50;6.00;;;;;;;17.43;nan;101474.75;6196342;23;20482;-90
2022/10/12 04:34:24;;;;;;;14.70;5.33;;;;;;;17.49;nan;101484.09;6221124;23;20401;-90
2022/10/12 04:36:52;;;;;;;19.90;5.83;;;;;;;17.51;nan;101487.47;6170930;23;20399;-91
2022/10/12 04:39:21;;;;;;;18.53;5.37;;;;;;;17.52;nan;101480.84;6195190;23;20403;-90
2022/10/12 04:41:48;;;;;;;24.93;6.60;;;;;;;17.55;nan;101483.19;6196553;23;20398;-91
2022/10/12 04:44:17;;;;;;;23.57;6.03;;;;;;;17.59;nan;101489.97;6195742;23;20435;-90
2022/10/12 04:46:48;;;;;;;15.90;5.20;;;;;;;17.60;nan;101491.66;6196381;23;20395;-91
2022/10/12 04:49:17;;;;;;;16.77;6.43;;;;;;;17.64;nan;101501.25;6195843;23;20437;-91
2022/10/12 04:51:46;;;;;;;15.87;6.40;;;;;;;17.64;nan;101492.97;6195741;23;20476;-91
2022/10/12 04:54:16;;;;;;;18.77;6.17;;;;;;;17.70;nan;101497.59;6171290;23;20878;-90
2022/10/12 04:56:44;;;;;;;19.50;5.50;;;;;;;17.66;nan;101489.97;6195994;23;20475;-90
2022/10/12 04:59:16;;;;;;;16.10;6.00;;;;;;;17.64;nan;101498.50;6196897;23;20490;-91
2022/10/12 05:01:44;;;;;;;17.90;6.63;;;;;;;17.63;nan;101496.75;6171300;23;20478;-90
2022/10/12 05:04:14;;;;;;;19.50;6.77;;;;;;;17.63;nan;101487.63;6171134;23;20422;-89
2022/10/12 05:06:49;;;;;;;19.70;6.73;;;;;;;17.61;nan;101496.13;6195704;23;20466;-90
2022/10/12 05:09:18;;;;;;;17.73;6.13;;;;;;;17.61;nan;101504.41;6195624;23;20398;-91
2022/10/12 05:11:47;;;;;;;22.97;6.87;;;;;;;17.59;nan;101495.50;6195656;23;20407;-91
2022/10/12 05:14:16;;;;;;;15.43;6.80;;;;;;;17.55;nan;101502.53;6171717;23;20869;-89
2022/10/12 05:16:56;;;;;;;21.27;6.90;;;;;;;17.60;nan;101509.09;6171534;23;20533;-91
2022/10/12 05:19:25;;;;;;;23.83;6.20;;;;;;;17.56;nan;101501.47;6144775;23;20561;-90
2022/10/12 05:21:53;;;;;;;18.43;6.90;;;;;;;17.58;nan;101502.09;6215941;23;20475;-91
2022/10/12 05:24:21;;;;;;;20.87;7.50;;;;;;;17.57;nan;101508.69;6166505;23;20424;-89
2022/10/12 05:26:49;;;;;;;20.30;6.10;;;;;;;17.61;nan;101518.25;6165531;23;20400;-91
2022/10/12 05:29:17;;;;;;;24.97;6.13;;;;;;;17.57;nan;101509.53;6214915;23;20446;-91
2022/10/12 05:32:10;;;;;;;13.60;6.30;;;;;;;17.61;nan;101521.00;6165357;23;20400;-93
2022/10/12 05:34:37;;;;;;;17.97;6.80;;;;;;;17.60;nan;101522.06;6215748;23;20731;-91
2022/10/12 05:37:06;;;;;;;15.43;6.80;;;;;;;17.56;nan;101518.91;6141896;23;20400;-90
2022/10/12 05:39:35;;;;;;;18.53;6.77;;;;;;;17.50;nan;101521.72;6166719;23;20499;-91
2022/10/12 05:42:11;;;;;;;16.03;6.30;;;;;;;17.53;nan;101524.00;6166439;23;20534;-91
2022/10/12 05:44:49;;;;;;;16.20;5.60;;;;;;;17.56;nan;101529.09;6165524;23;20497;-91
2022/10/12 05:47:16;;;;;;;23.07;7.03;;;;;;;17.54;nan;101526.56;6190238;23;20471;-90
2022/10/12 05:49:44;;;;;;;12.57;6.00;;;;;;;17.53;nan;101538.69;6164579;23;20403;-90
2022/10/12 05:52:13;;;;;;;22.47;5.43;;;;;;;17.49;nan;101533.84;6165965;23;20462;-91
2022/10/12 05:54:42;;;;;;;10.60;5.23;;;;;;;17.45;nan;101550.00;6142965;23;20474;-91
2022/10/12 05:57:10;;;;;;;15.70;4.50;;;;;;;17.31;nan;101537.31;6191814;23;20408;-91
2022/10/12 05:59:37;;;;;;;14.30;4.93;;;;;;;17.29;nan;101549.66;6167856;23;20400;-92
2022/10/12 06:02:24;;;;;;;17.53;5.00;;;;;;;17.19;nan;101553.72;6143934;23;20463;-90
2022/10/12 06:05:01;;;;;;;14.30;4.70;;;;;;;17.17;nan;101561.38;6168834;23;20427;-91
2022/10/12 06:07:36;;;;;;;15.07;5.07;;;;;;;17.14;nan;101561.78;6215967;23;20449;-91
2022/10/12 06:10:09;;;;;;;12.83;5.30;;;;;;;17.11;nan;101556.72;6167395;23;20411;-90
2022/10/12 06:12:38;;;;;;;11.43;4.90;;;;;;;17.08;nan;101561.84;6180623;23;20502;-91
2022/10/12 06:15:12;;;;;;;16.50;5.20;;;;;;;17.03;nan;101558.88;6162594;23;20407;-90
2022/10/12 06:17:40;;;;;;;18.80;5.70;;;;;;;16.98;nan;101558.66;6197011;23;20509;-91
2022/10/12 06:20:11;;;;;;;19.20;6.20;;;;;;;16.99;nan;101552.94;6172981;23;20481;-90
2022/10/12 06:22:42;;;;;;;22.87;5.90;;;;;;;16.98;nan;101556.75;6221890;23;20449;-90
2022/10/12 06:25:12;;;;;;;25.80;6.70;;;;;;;16.93;nan;101562.91;6172897;23;20564;-92
2022/10/12 06:27:46;;;;;;;16.67;6.07;;;;;;;16.95;nan;101559.94;6172152;23;20758;-91
2022/10/12 06:30:14;;;;;;;12.40;4.90;;;;;;;16.91;nan;101553.19;6172517;23;20788;-91
2022/10/12 06:32:42;;;;;;;13.80;5.13;;;;;;;16.83;nan;101545.09;6172316;23;20410;-90
2022/10/12 06:35:12;;;;;;;14.87;5.17;;;;;;;16.78;nan;101542.97;6172583;23;20485;-90
2022/10/12 06:37:40;;;;;;;13.10;6.17;;;;;;;16.82;nan;101543.41;6172915;23;20529;-90
2022/10/12 06:40:23;;;;;;;18.83;5.83;;;;;;;16.87;nan;101543.63;6177552;23;20872;-90
2022/10/12 06:42:51;;;;;;;22.80;6.73;;;;;;;16.94;nan;101555.47;6198557;23;20390;-90
2022/10/12 06:45:34;;;;;;;13.83;5.30;;;;;;;16.98;nan;101556.75;6186410;23;20489;-91
2022/10/12 06:48:17;;;;;;;13.60;5.93;;;;;;;16.97;nan;101552.28;6180070;23;20434;-90
2022/10/12 06:50:53;;;;;;;19.70;5.80;;;;;;;16.96;nan;101558.88;6173363;23;20929;-92
2022/10/12 06:53:22;;;;;;;11.27;5.57;;;;;;;16.94;nan;101552.72;6173348;23;20490;-90
2022/10/12 06:55:49;;;;;;;20.70;5.27;;;;;;;16.90;nan;101551.47;6196995;23;20904;-91
2022/10/12 06:58:18;;;;;;;17.77;5.70;;;;;;;16.94;nan;101547.19;6196668;23;20794;-90
2022/10/12 07:00:46;;;;;;;16.77;6.27;;;;;;;16.99;nan;101555.69;6196792;23;20403;-91
2022/10/12 07:03:16;;;;;;;16.50;6.27;;;;;;;17.02;nan;101555.25;6171863;23;20426;-91
2022/10/12 07:05:46;;;;;;;17.90;6.53;;;;;;;17.04;nan;101553.13;6197305;23;20513;-91
2022/10/12 07:08:17;;;;;;;15.23;5.87;;;;;;;17.02;nan;101555.25;6173978;23;20470;-90
2022/10/12 07:10:46;;;;;;;15.93;5.77;;;;;;;17.01;nan;101548.03;6172411;23;20461;-91
2022/10/12 07:13:21;;;;;;;21.10;6.97;;;;;;;17.05;nan;101559.50;6172559;23;20466;-90
2022/10/12 07:15:50;;;;;;;25.37;6.30;;;;;;;17.06;nan;101550.16;6171756;23;20815;-90
2022/10/12 07:18:18;;;;;;;13.00;5.23;;;;;;;17.08;nan;101559.06;6209526;23;20435;-90
2022/10/12 07:20:46;;;;;;;13.90;5.27;;;;;;;17.04;nan;101558.66;6142461;23;20913;-89
2022/10/12 07:23:17;;;;;;;12.53;5.80;;;;;;;17.11;nan;101578.84;6166430;23;20734;-88
2022/10/12 07:25:52;;;;;;;20.60;6.33;;;;;;;17.10;nan;101574.38;6166102;23;20934;-91
2022/10/12 07:28:20;;;;;;;20.03;5.73;;;;;;;17.08;nan;101568.22;6142342;23;20964;-90
2022/10/12 07:31:22;;;;;;;21.00;5.90;;;;;;;17.17;nan;101585.38;6167102;23;20395;-94
2022/10/12 07:33:50;;;;;;;13.10;5.30;;;;;;;17.18;nan;101582.41;6190960;23;20415;-91
2022/10/12 07:36:22;;;;;;;13.83;5.57;;;;;;;17.23;nan;101585.38;6142850;23;20392;-92
2022/10/12 07:39:23;;;;;;;21.53;5.83;;;;;;;17.29;nan;101586.44;6220620;23;20408;-91
2022/10/12 07:41:53;;;;;;;18.60;7.27;;;;;;;17.33;nan;101589.56;6218576;23;20411;-93
2022/10/12 07:44:34;;;;;;;19.83;7.50;;;;;;;17.37;nan;101590.84;6169042;23;20432;-92
2022/10/12 07:47:28;;;;;;;17.87;6.40;;;;;;;17.49;nan;101601.03;6172437;23;20411;-94
2022/10/12 07:50:44;;;;;;;15.00;5.87;;;;;;;17.58;nan;101598.84;6218262;23;20418;-93
2022/10/12 07:53:15;;;;;;;19.13;5.90;;;;;;;17.56;nan;101588.00;6191260;23;20423;-93
2022/10/12 07:56:17;;;;;;;20.90;5.70;;;;;;;17.71;nan;101604.34;6192029;23;20886;-93
2022/10/12 07:58:51;;;;;;;15.53;5.27;;;;;;;17.70;nan;101591.63;6216219;23;20396;-93
2022/10/12 08:01:21;;;;;;;14.17;5.30;;;;;;;17.79;nan;101606.88;6165861;23;20929;-93
2022/10/12 08:03:50;;;;;;;19.03;5.27;;;;;;;17.85;nan;101607.91;6166618;23;20407;-92
2022/10/12 08:06:23;;;;;;;19.77;5.57;;;;;;;17.86;nan;101606.84;6166341;23;20418;-93
2022/10/12 08:08:53;;;;;;;18.67;5.20;;;;;;;17.90;nan;101613.59;6190532;23;20423;-93
2022/10/12 08:11:22;;;;;;;18.67;6.00;;;;;;;17.98;nan;101626.34;6166915;23;20403;-93
2022/10/12 08:13:55;;;;;;;22.53;6.23;;;;;;;18.01;nan;101610.16;6166436;23;20414;-94
2022/10/12 08:16:25;;;;;;;21.10;6.10;;;;;;;18.14;nan;101615.59;6166670;23;20414;-93
2022/10/12 08:18:54;;;;;;;17.90;5.63;;;;;;;18.26;nan;101621.28;6166427;23;20474;-93
2022/10/12 08:21:26;;;;;;;17.10;6.17;;;;;;;18.31;nan;101610.38;6165624;23;20418;-93
2022/10/12 08:23:56;;;;;;;17.43;6.20;;;;;;;18.34;nan;101606.31;6191082;23;20473;-93
2022/10/12 08:26:28;;;;;;;16.00;5.90;;;;;;;18.46;nan;101610.94;6165968;23;20412;-93
2022/10/12 08:29:00;;;;;;;17.47;5.67;;;;;;;18.49;nan;101604.91;6166681;23;20408;-92
2022/10/12 08:31:29;;;;;;;12.87;4.53;;;;;;;18.62;nan;101613.16;6165857;23;20416;-92
2022/10/12 08:34:02;;;;;;;18.97;5.10;;;;;;;18.79;nan;101624.53;6142612;23;20407;-92
2022/10/12 08:36:30;;;;;;;11.10;4.70;;;;;;;18.87;nan;101623.38;6165921;23;20418;-92
2022/10/12 08:39:00;;;;;;;15.10;5.33;;;;;;;18.96;nan;101631.19;6167083;23;21033;-93
2022/10/12 08:41:34;;;;;;;18.07;4.77;;;;;;;19.07;nan;101631.50;6165986;23;20909;-92
2022/10/12 08:44:11;;;;;;;14.77;5.53;;;;;;;19.15;nan;101633.97;6191243;23;20490;-93
2022/10/12 08:46:41;;;;;;;10.00;4.83;;;;;;;19.12;nan;101615.88;6190536;23;20473;-92
2022/10/12 08:49:14;;;;;;;14.93;5.30;;;;;;;19.23;nan;101631.78;6190619;23;20416;-92
2022/10/12 08:51:49;;;;;;;16.27;5.23;;;;;;;19.32;nan;101632.31;6166903;23;20878;-92
2022/10/12 08:54:19;;;;;;;12.10;4.57;;;;;;;19.45;nan;101634.06;6165357;23;20419;-92
2022/10/12 08:56:54;;;;;;;11.37;4.90;;;;;;;19.53;nan;101631.03;6049305;23;20482;-92
2022/10/12 08:59:25;;;;;;;13.20;4.60;;;;;;;19.59;nan;101624.56;6048859;23;20415;-92
2022/10/12 09:02:06;;;;;;;10.90;5.13;;;;;;;19.69;nan;101624.84;6048799;23;20403;-93
2022/10/12 09:04:53;;;;;;;14.90;4.83;;;;;;;19.85;nan;101635.31;6072373;23;20442;-93
2022/10/12 09:07:59;;;;;;;14.20;4.90;;;;;;;19.94;nan;101622.81;6048397;23;20415;-93
2022/10/12 09:10:54;;;;;;;17.90;4.93;;;;;;;20.12;nan;101629.41;5986707;23;20498;-93
2022/10/12 09:13:59;;;;;;;14.83;5.37;;;;;;;20.27;nan;101643.69;5984311;23;20560;-92
2022/10/12 09:16:30;;;;;;;13.30;4.90;;;;;;;20.38;nan;101648.50;6043625;23;20491;-93
2022/10/12 09:19:00;;;;;;;18.27;5.57;;;;;;;20.49;nan;101631.00;6011802;23;20531;-93
2022/10/12 09:21:28;;;;;;;13.63;6.10;;;;;;;20.63;nan;101637.19;6019882;23;20425;-92
2022/10/12 09:23:59;;;;;;;18.80;5.90;;;;;;;20.77;nan;101626.72;6019484;23;20452;-92
2022/10/12 09:26:38;;;;;;;24.47;5.57;;;;;;;20.85;nan;101618.00;6043436;23;20539;-93
2022/10/12 09:29:22;;;;;;;16.33;4.97;;;;;;;21.08;nan;101623.59;6021385;23;20431;-92
2022/10/12 09:32:04;;;;;;;15.33;4.73;;;;;;;21.28;nan;101624.09;6045669;23;20435;-92
2022/10/12 09:34:35;;;;;;;23.17;5.47;;;;;;;21.42;nan;101624.66;6045479;23;20420;-92
2022/10/12 09:37:04;;;;;;;15.83;4.77;;;;;;;21.56;nan;101630.81;6021221;23;20415;-93
2022/10/12 09:39:37;;;;;;;18.20;5.37;;;;;;;21.69;nan;101630.56;6068937;23;20413;-92
2022/10/12 09:42:08;;;;;;;9.07;4.20;;;;;;;21.80;nan;101621.31;6023276;23;20746;-93
2022/10/12 09:45:12;;;;;;;23.53;4.93;;;;;;;21.95;nan;101623.56;6022083;23;20451;-92
2022/10/12 09:47:40;;;;;;;9.67;4.20;;;;;;;22.10;nan;101625.84;6174860;23;20408;-92
2022/10/12 09:50:08;;;;;;;22.57;5.77;;;;;;;22.19;nan;101629.91;6143233;23;20419;-93
2022/10/12 09:52:37;;;;;;;12.97;4.40;;;;;;;22.34;nan;101630.19;6142842;23;20411;-92
2022/10/12 09:55:24;;;;;;;14.20;4.50;;;;;;;22.47;nan;101638.25;6192215;23;20408;-93
2022/10/12 10:02:24;;;;;;;15.13;4.43;;;;;;;22.86;nan;101635.59;6218598;23;20897;-92
2022/10/12 10:04:53;;;;;;;15.07;4.33;;;;;;;22.94;nan;101619.28;6192269;23;20434;-92
2022/10/12 10:07:29;;;;;;;12.50;4.03;;;;;;;23.07;nan;101627.31;6142758;23;20418;-92
2022/10/12 10:10:09;;;;;;;8.57;4.53;;;;;;;23.20;nan;101631.69;6143714;23;20407;-92
2022/10/12 10:12:51;;;;;;;18.50;5.60;;;;;;;23.28;nan;101622.88;6192772;23;20490;-92
2022/10/12 10:15:33;;;;;;;13.00;4.70;;;;;;;23.35;nan;101617.94;6144018;23;20415;-92
2022/10/12 10:18:02;;;;;;;14.53;4.73;;;;;;;23.54;nan;101624.09;6161492;23;20443;-92
2022/10/12 10:20:49;;;;;;;13.13;4.30;;;;;;;23.62;nan;101620.88;6168286;23;20800;-93
2022/10/12 10:23:22;;;;;;;13.20;4.10;;;;;;;23.75;nan;101628.00;6171261;23;20404;-92
2022/10/12 10:26:06;;;;;;;16.60;4.10;;;;;;;23.90;nan;101625.38;6167573;23;20446;-92
2022/10/12 10:28:38;;;;;;;17.90;4.60;;;;;;;23.98;nan;101622.16;6167955;23;20418;-93
2022/10/12 10:31:12;;;;;;;15.50;4.20;;;;;;;24.17;nan;101624.59;6143665;23;20985;-93
2022/10/12 10:33:39;;;;;;;14.83;4.43;;;;;;;24.22;nan;101622.69;6167882;23;20400;-93
2022/10/12 10:36:24;;;;;;;8.70;3.37;;;;;;;24.37;nan;101628.47;6143804;23;20411;-92
2022/10/12 10:38:57;;;;;;;20.50;4.77;;;;;;;24.52;nan;101616.59;6144072;23;20411;-92
2022/10/12 10:41:30;;;;;;;9.70;4.10;;;;;;;24.63;nan;101612.75;6167838;23;20408;-92
2022/10/12 10:43:58;;;;;;;14.80;4.33;;;;;;;24.73;nan;101610.06;6191779;23;20403;-92
2022/10/12 10:46:29;;;;;;;19.70;5.73;;;;;;;24.94;nan;101621.41;6192262;23;20447;-92
2022/10/12 10:49:05;;;;;;;21.00;5.30;;;;;;;24.98;nan;101614.22;6192077;23;20404;-93
2022/10/12 10:51:56;;;;;;;24.23;8.03;;;;;;;25.16;nan;101629.72;6204629;23;20740;-93
2022/10/12 10:54:29;;;;;;;25.80;6.73;;;;;;;25.14;nan;101621.59;6167836;23;20483;-93
2022/10/12 10:57:12;;;;;;;27.47;6.97;;;;;;;25.18;nan;101625.53;6143875;23;20471;-92
2022/10/12 10:59:48;;;;;;;28.00;6.83;;;;;;;25.23;nan;101622.75;6167203;23;20408;-92
2022/10/12 11:02:51;;;;;;;25.80;8.90;;;;;;;25.38;nan;101636.03;6192327;23;20415;-92
2022/10/12 11:05:22;;;;;;;32.37;7.23;;;;;;;25.46;nan;101633.53;6217019;23;20510;-92
2022/10/12 11:07:55;;;;;;;23.80;8.43;;;;;;;25.43;nan;101628.47;6191846;23;20925;-92
2022/10/12 11:10:25;;;;;;;28.73;7.37;;;;;;;25.43;nan;101631.28;6167012;23;20411;-93
2022/10/12 11:13:16;;;;;;;21.73;7.87;;;;;;;25.43;nan;101622.88;6216012;23;20415;-93
2022/10/12 11:16:13;;;;;;;15.23;5.80;;;;;;;25.55;nan;101619.88;6186497;23;20408;-92
2022/10/12 11:19:09;;;;;;;29.43;7.43;;;;;;;25.57;nan;101616.81;6182236;23;20513;-92
2022/10/12 11:21:42;;;;;;;29.67;7.73;;;;;;;25.64;nan;101617.41;6201754;23;20707;-92
2022/10/12 11:24:17;;;;;;;18.93;5.20;;;;;;;25.68;nan;101612.97;6197902;23;20429;-93
2022/10/12 11:26:50;;;;;;;14.50;5.37;;;;;;;25.73;nan;101607.38;6246253;23;20434;-93
2022/10/12 11:29:25;;;;;;;15.50;4.67;;;;;;;25.91;nan;101617.25;6199771;23;20481;-92
2022/10/12 11:32:06;;;;;;;21.80;5.30;;;;;;;25.96;nan;101606.91;6196546;23;20417;-93
2022/10/12 11:34:45;;;;;;;20.87;6.00;;;;;;;26.02;nan;101597.38;6172943;23;20421;-92
2022/10/12 11:37:18;;;;;;;19.53;5.80;;;;;;;26.13;nan;101596.31;6246032;23;20466;-92
2022/10/12 11:39:51;;;;;;;19.10;6.23;;;;;;;26.33;nan;101597.50;6197933;23;20540;-92
2022/10/12 11:42:32;;;;;;;16.80;5.23;;;;;;;26.45;nan;101595.25;6196577;23;20534;-91
2022/10/12 11:45:01;;;;;;;16.17;5.50;;;;;;;26.52;nan;101589.38;6246310;23;20413;-92
2022/10/12 11:47:42;;;;;;;15.07;5.47;;;;;;;26.66;nan;101590.50;6172536;23;20993;-92
2022/10/12 11:50:29;;;;;;;12.93;4.63;;;;;;;26.73;nan;101605.94;6197125;23;20908;-92
2022/10/12 11:52:57;;;;;;;14.73;5.03;;;;;;;26.66;nan;101599.75;6221264;23;20802;-92
2022/10/12 11:55:54;;;;;;;13.47;6.03;;;;;;;26.71;nan;101605.38;6172432;23;20522;-92
2022/10/12 11:58:27;;;;;;;20.40;6.43;;;;;;;26.66;nan;101607.31;6221268;23;20905;-93
2022/10/12 12:01:34;;;;;;;15.67;5.17;;;;;;;26.70;nan;101619.66;6184884;23;20425;-92
2022/10/12 12:04:17;;;;;;;11.63;4.97;;;;;;;26.68;nan;101617.13;6198814;23;20413;-92
2022/10/12 12:07:42;;;;;;;16.43;4.67;;;;;;;26.68;nan;101617.13;6225766;23;20949;-92
2022/10/12 12:10:34;;;;;;;12.00;4.70;;;;;;;26.73;nan;101631.19;6201992;23;20411;-92
2022/10/12 12:13:11;;;;;;;13.33;4.70;;;;;;;26.70;nan;101628.94;6223104;23;20486;-92
2022/10/12 12:15:59;;;;;;;11.10;4.50;;;;;;;26.69;nan;101617.97;6220858;23;20414;-91
2022/10/12 12:19:09;;;;;;;11.60;4.40;;;;;;;26.75;nan;101620.50;6246718;23;20492;-92